Terminal Aerodrome Forecast
Issued by NWS

Home | Current Version | Previous Version | Text Only | Print | Product List | Glossary On
Versions: 1 2 3 4 5 6 7 8 9 10 11 12 13 14 15 16 17 18 19 20 21 22 23
000
FTUS43 KDVN 201132
TAFBRL
TAF
KBRL 201132Z 2012/2112 VRB05KT P6SM SCT120
      TEMPO 2013/2015 26015G30KT 6SM TSRA BKN070CB
     FM201600 16011KT P6SM SCT040 BKN250
     FM210000 17007KT P6SM BKN080 PROB30 2100/2104 -TSRA BKN050CB=

USA.gov is the U.S. government's official web portal to all federal, state and local government web resources and services.